createdAt,value
2023-01-29T00:00:22.562Z,142.30
2023-01-29T00:01:22.552Z,138.70
2023-01-29T00:02:22.564Z,136.50
2023-01-29T00:03:22.549Z,137.20
2023-01-29T00:04:22.513Z,138.50
2023-01-29T00:05:29.737Z,139.20
2023-01-29T00:06:23.493Z,140.60
2023-01-29T00:07:22.464Z,132.90
2023-01-29T00:08:22.451Z,135.10
2023-01-29T00:09:22.457Z,136.10
2023-01-29T00:10:22.443Z,140.50
2023-01-29T00:11:22.435Z,135.50
2023-01-29T00:12:22.415Z,128.70
2023-01-29T00:13:22.389Z,135.50
2023-01-29T00:14:22.384Z,133.20
2023-01-29T00:15:22.379Z,137.00
2023-01-29T00:16:22.365Z,131.10
2023-01-29T00:17:22.362Z,136.00
2023-01-29T00:18:22.332Z,140.90
2023-01-29T00:19:22.309Z,145.80
2023-01-29T00:20:22.300Z,140.00
2023-01-29T00:21:22.320Z,140.90
2023-01-29T00:22:22.280Z,141.80
2023-01-29T00:23:22.262Z,142.20
2023-01-29T00:24:22.309Z,146.80
2023-01-29T00:25:22.247Z,146.10
2023-01-29T00:26:22.340Z,151.90
2023-01-29T00:27:22.217Z,152.00
2023-01-29T00:28:22.209Z,157.20
2023-01-29T00:29:22.188Z,160.10
2023-01-29T00:30:22.183Z,154.40
2023-01-29T00:31:22.320Z,160.20
2023-01-29T00:32:22.224Z,149.80
2023-01-29T00:33:22.131Z,160.40
2023-01-29T00:34:22.130Z,158.10
2023-01-29T00:35:22.111Z,154.80
2023-01-29T00:36:22.133Z,164.10
2023-01-29T00:37:22.088Z,151.10
2023-01-29T00:38:22.070Z,160.70
2023-01-29T00:39:26.434Z,159.80
2023-01-29T00:40:23.051Z,162.40
2023-01-29T00:41:22.120Z,161.30
2023-01-29T00:42:22.020Z,158.20
2023-01-29T00:43:22.007Z,160.30
2023-01-29T00:44:22.009Z,163.30
2023-01-29T00:45:21.992Z,159.60
2023-01-29T00:46:22.075Z,160.50
2023-01-29T00:47:21.958Z,161.20
2023-01-29T00:48:21.958Z,158.50
2023-01-29T00:49:21.936Z,155.10
2023-01-29T00:50:21.922Z,159.40
2023-01-29T00:51:21.934Z,156.30
2023-01-29T00:52:21.909Z,161.00
2023-01-29T00:53:21.888Z,156.60
2023-01-29T00:54:21.870Z,155.50
2023-01-29T00:55:21.860Z,162.30
2023-01-29T00:56:21.871Z,157.90
2023-01-29T00:57:21.836Z,160.30
2023-01-29T00:58:21.820Z,152.40
2023-01-29T00:59:21.812Z,159.70
2023-01-29T01:00:21.807Z,154.50
2023-01-29T01:01:21.788Z,155.20
2023-01-29T01:02:21.842Z,154.30
2023-01-29T01:03:21.769Z,154.20
2023-01-29T01:04:21.765Z,154.70
2023-01-29T01:05:21.735Z,154.90
2023-01-29T01:06:21.745Z,161.20
2023-01-29T01:07:21.713Z,156.30
2023-01-29T01:08:21.735Z,155.20
2023-01-29T01:09:21.689Z,163.40
2023-01-29T01:10:21.722Z,160.90
2023-01-29T01:11:21.679Z,161.30
2023-01-29T01:12:21.674Z,153.20
2023-01-29T01:13:21.629Z,154.00
2023-01-29T01:14:21.619Z,153.10
2023-01-29T01:15:21.599Z,151.30
2023-01-29T01:16:21.666Z,162.00
2023-01-29T01:17:21.592Z,161.60
2023-01-29T01:18:21.568Z,162.60
2023-01-29T01:19:21.549Z,153.20
2023-01-29T01:20:21.584Z,165.30
2023-01-29T01:21:21.571Z,154.20
2023-01-29T01:22:21.520Z,150.20
2023-01-29T01:23:21.499Z,146.80
2023-01-29T01:24:21.597Z,143.30
2023-01-29T01:25:21.489Z,152.70
2023-01-29T01:26:21.500Z,146.60
2023-01-29T01:27:21.463Z,146.90
2023-01-29T01:28:21.462Z,146.70
2023-01-29T01:29:21.450Z,153.20
2023-01-29T01:30:21.453Z,142.30
2023-01-29T01:31:21.531Z,145.60
2023-01-29T01:32:21.411Z,154.70
2023-01-29T01:33:21.405Z,144.70
2023-01-29T01:34:21.380Z,141.40
2023-01-29T01:35:21.387Z,152.20
2023-01-29T01:36:21.371Z,152.80
2023-01-29T01:37:21.331Z,150.60
2023-01-29T01:38:21.340Z,143.60
2023-01-29T01:39:21.334Z,138.50
2023-01-29T01:40:21.315Z,141.70
2023-01-29T01:41:21.310Z,145.80
2023-01-29T01:42:21.283Z,135.80
2023-01-29T01:43:21.276Z,135.90
2023-01-29T01:44:21.261Z,141.80
2023-01-29T01:45:21.234Z,144.90
2023-01-29T01:46:21.270Z,141.50
2023-01-29T01:47:21.212Z,140.60
2023-01-29T01:48:21.207Z,143.80
2023-01-29T01:49:21.189Z,145.30
2023-01-29T01:50:21.171Z,138.60
2023-01-29T01:51:21.201Z,147.40
2023-01-29T01:52:21.160Z,137.10
2023-01-29T01:53:21.132Z,143.00
2023-01-29T01:54:21.130Z,142.00
2023-01-29T01:55:21.118Z,143.50
2023-01-29T01:56:21.142Z,149.30
2023-01-29T01:57:21.093Z,152.00
2023-01-29T01:58:21.089Z,144.80
2023-01-29T01:59:21.050Z,149.10
2023-01-29T02:00:21.061Z,154.30
2023-01-29T02:01:21.184Z,146.40
2023-01-29T02:02:21.045Z,147.60
2023-01-29T02:03:21.014Z,145.60
2023-01-29T02:04:21.005Z,141.50
2023-01-29T02:05:20.991Z,140.80
2023-01-29T02:06:21.000Z,149.10
2023-01-29T02:07:20.961Z,144.70
2023-01-29T02:08:20.953Z,149.60
2023-01-29T02:09:20.937Z,140.70
2023-01-29T02:10:20.939Z,152.90
2023-01-29T02:11:20.920Z,150.00
2023-01-29T02:12:20.924Z,146.80
2023-01-29T02:13:20.880Z,146.60
2023-01-29T02:14:20.879Z,142.50
2023-01-29T02:15:20.884Z,148.60
2023-01-29T02:16:20.870Z,145.00
2023-01-29T02:17:20.919Z,156.40
2023-01-29T02:18:20.829Z,155.40
2023-01-29T02:19:20.812Z,145.30
2023-01-29T02:20:20.834Z,147.80
2023-01-29T02:21:20.798Z,151.20
2023-01-29T02:22:20.788Z,142.00
2023-01-29T02:23:20.753Z,149.60
2023-01-29T02:24:20.830Z,150.90
2023-01-29T02:25:20.745Z,150.60
2023-01-29T02:26:20.762Z,151.80
2023-01-29T02:27:20.714Z,151.20
2023-01-29T02:28:20.699Z,151.20
2023-01-29T02:29:20.677Z,145.40
2023-01-29T02:30:20.679Z,152.70
2023-01-29T02:31:20.771Z,159.00
2023-01-29T02:32:20.650Z,156.90
2023-01-29T02:33:20.641Z,161.80
2023-01-29T02:34:20.621Z,159.30
2023-01-29T02:35:20.599Z,166.80
2023-01-29T02:36:20.625Z,156.20
2023-01-29T02:37:20.594Z,162.80
2023-01-29T02:38:20.572Z,155.30
2023-01-29T02:39:20.565Z,161.30
2023-01-29T02:40:20.538Z,153.50
2023-01-29T02:41:20.551Z,159.20
2023-01-29T02:42:20.549Z,152.40
2023-01-29T02:43:20.503Z,153.20
2023-01-29T02:44:20.491Z,155.40
2023-01-29T02:45:20.479Z,151.70
2023-01-29T02:46:20.488Z,152.20
2023-01-29T02:47:20.459Z,151.10
2023-01-29T02:48:20.455Z,150.40
2023-01-29T02:49:20.443Z,151.60
2023-01-29T02:50:20.427Z,152.10
2023-01-29T02:51:20.411Z,150.20
2023-01-29T02:52:20.413Z,154.50
2023-01-29T02:53:20.393Z,152.00
2023-01-29T02:54:20.380Z,144.70
2023-01-29T02:55:20.359Z,148.20
2023-01-29T02:56:20.338Z,147.60
2023-01-29T02:57:20.344Z,147.60
2023-01-29T02:58:20.331Z,151.10
2023-01-29T02:59:20.328Z,148.80
2023-01-29T03:00:20.296Z,147.70
2023-01-29T03:01:20.323Z,152.20
2023-01-29T03:02:20.336Z,153.20
2023-01-29T03:03:20.250Z,151.30
2023-01-29T03:04:20.240Z,150.60
2023-01-29T03:05:20.227Z,145.10
2023-01-29T03:06:20.223Z,147.60
2023-01-29T03:07:20.217Z,142.70
2023-01-29T03:08:20.188Z,148.40
2023-01-29T03:09:20.177Z,157.00
2023-01-29T03:10:20.188Z,144.90
2023-01-29T03:11:20.158Z,152.00
2023-01-29T03:12:20.424Z,154.00
2023-01-29T03:13:20.131Z,151.20
2023-01-29T03:14:20.118Z,150.90
2023-01-29T03:15:20.095Z,155.70
2023-01-29T03:16:20.173Z,152.50
2023-01-29T03:17:20.105Z,155.10
2023-01-29T03:18:20.077Z,146.80
2023-01-29T03:19:20.066Z,155.10
2023-01-29T03:20:20.063Z,150.30
2023-01-29T03:21:20.035Z,154.70
2023-01-29T03:22:20.048Z,156.00
2023-01-29T03:23:20.002Z,155.40
2023-01-29T03:24:20.033Z,164.60
2023-01-29T03:25:19.987Z,153.70
2023-01-29T03:26:19.974Z,155.70
2023-01-29T03:27:19.967Z,158.00
2023-01-29T03:28:19.949Z,164.20
2023-01-29T03:29:19.943Z,162.10
2023-01-29T03:30:19.906Z,164.30
2023-01-29T03:31:19.993Z,166.10
2023-01-29T03:32:19.911Z,160.10
2023-01-29T03:33:19.880Z,158.90
2023-01-29T03:34:19.877Z,163.90
2023-01-29T03:35:19.848Z,168.30
2023-01-29T03:36:19.844Z,162.60
2023-01-29T03:37:19.858Z,165.90
2023-01-29T03:38:19.820Z,167.80
2023-01-29T03:39:19.807Z,174.30
2023-01-29T03:40:19.922Z,173.40
2023-01-29T03:41:19.776Z,172.30
2023-01-29T03:42:19.776Z,172.50
2023-01-29T03:43:19.756Z,167.10
2023-01-29T03:44:19.746Z,190.10
2023-01-29T03:45:19.725Z,180.20
2023-01-29T03:46:19.715Z,186.20
2023-01-29T03:47:19.727Z,188.10
2023-01-29T03:48:19.696Z,182.10
2023-01-29T03:49:19.675Z,184.20
2023-01-29T03:50:19.656Z,178.90
2023-01-29T03:51:19.645Z,180.60
2023-01-29T03:52:19.646Z,184.40
2023-01-29T03:53:19.644Z,177.10
2023-01-29T03:54:19.611Z,172.10
2023-01-29T03:55:19.597Z,179.70
2023-01-29T03:56:19.592Z,169.00
2023-01-29T03:57:19.578Z,168.90
2023-01-29T03:58:19.576Z,168.10
2023-01-29T03:59:19.563Z,168.50
2023-01-29T04:00:19.575Z,170.50
2023-01-29T04:01:19.606Z,170.20
2023-01-29T04:02:19.505Z,158.10
2023-01-29T04:03:19.528Z,157.80
2023-01-29T04:04:19.509Z,163.40
2023-01-29T04:05:19.476Z,166.20
2023-01-29T04:06:19.456Z,160.00
2023-01-29T04:07:19.463Z,162.90
2023-01-29T04:08:19.445Z,162.60
2023-01-29T04:09:19.427Z,163.70
2023-01-29T04:10:19.421Z,162.90
2023-01-29T04:11:19.410Z,165.30
2023-01-29T04:12:19.384Z,157.80
2023-01-29T04:13:19.400Z,155.60
2023-01-29T04:14:19.355Z,154.00
2023-01-29T04:15:19.366Z,154.20
2023-01-29T04:16:19.342Z,146.00
2023-01-29T04:17:19.323Z,152.20
2023-01-29T04:18:19.335Z,149.50
2023-01-29T04:19:19.314Z,141.20
2023-01-29T04:20:19.551Z,140.90
2023-01-29T04:21:19.284Z,144.30
2023-01-29T04:22:19.256Z,159.70
2023-01-29T04:23:19.284Z,144.40
2023-01-29T04:24:19.245Z,149.90
2023-01-29T04:25:19.229Z,144.20
2023-01-29T04:26:19.209Z,143.70
2023-01-29T04:27:19.196Z,148.60
2023-01-29T04:28:19.196Z,147.20
2023-01-29T04:29:19.209Z,152.40
2023-01-29T04:30:19.183Z,141.50
2023-01-29T04:31:19.260Z,142.90
2023-01-29T04:32:19.175Z,140.60
2023-01-29T04:33:19.150Z,142.90
2023-01-29T04:34:19.117Z,143.20
2023-01-29T04:35:19.109Z,141.50
2023-01-29T04:36:19.089Z,138.60
2023-01-29T04:37:19.085Z,140.10
2023-01-29T04:38:19.089Z,143.30
2023-01-29T04:39:19.070Z,139.10
2023-01-29T04:40:19.271Z,136.10
2023-01-29T04:41:19.048Z,132.70
2023-01-29T04:42:19.031Z,140.00
2023-01-29T04:43:19.000Z,141.40
2023-01-29T04:44:19.003Z,134.90
2023-01-29T04:45:18.976Z,136.50
2023-01-29T04:46:18.983Z,138.00
2023-01-29T04:47:18.966Z,137.30
2023-01-29T04:48:18.937Z,135.20
2023-01-29T04:49:18.945Z,135.80
2023-01-29T04:50:19.291Z,137.30
2023-01-29T04:51:18.894Z,132.00
2023-01-29T04:52:18.898Z,139.10
2023-01-29T04:53:18.878Z,136.80
2023-01-29T04:54:18.874Z,135.20
2023-01-29T04:55:18.843Z,132.40
2023-01-29T04:56:18.852Z,131.70
2023-01-29T04:57:18.829Z,133.40
2023-01-29T04:58:18.804Z,138.70
2023-01-29T04:59:18.817Z,137.20
2023-01-29T05:00:19.004Z,135.90
2023-01-29T05:01:18.846Z,132.00
2023-01-29T05:02:18.755Z,133.50
2023-01-29T05:03:18.799Z,131.70
2023-01-29T05:04:18.765Z,138.60
2023-01-29T05:05:18.726Z,141.10
2023-01-29T05:06:18.713Z,186.60
2023-01-29T05:07:18.691Z,416.90
2023-01-29T05:08:18.705Z,288.70
2023-01-29T05:09:18.709Z,139.50
2023-01-29T05:10:19.071Z,136.40
2023-01-29T05:11:18.645Z,138.40
2023-01-29T05:12:18.655Z,126.90
2023-01-29T05:13:18.637Z,130.10
2023-01-29T05:14:18.624Z,142.10
2023-01-29T05:15:18.592Z,132.70
2023-01-29T05:16:18.630Z,137.70
2023-01-29T05:17:18.578Z,130.10
2023-01-29T05:18:18.583Z,130.20
2023-01-29T05:19:18.568Z,132.90
2023-01-29T05:20:18.885Z,128.50
2023-01-29T05:21:18.523Z,125.40
2023-01-29T05:22:18.509Z,128.10
2023-01-29T05:23:18.504Z,128.60
2023-01-29T05:24:18.549Z,140.90
2023-01-29T05:25:18.472Z,169.00
2023-01-29T05:26:18.444Z,184.40
2023-01-29T05:27:18.456Z,143.00
2023-01-29T05:28:18.438Z,135.20
2023-01-29T05:29:18.433Z,127.50
2023-01-29T05:30:18.869Z,124.70
2023-01-29T05:31:18.447Z,124.90
2023-01-29T05:32:18.385Z,129.90
2023-01-29T05:33:18.369Z,122.40
2023-01-29T05:34:18.363Z,128.70
2023-01-29T05:35:18.358Z,122.60
2023-01-29T05:36:18.324Z,130.50
2023-01-29T05:37:18.313Z,125.00
2023-01-29T05:38:18.322Z,131.50
2023-01-29T05:39:18.316Z,122.90
2023-01-29T05:40:18.509Z,125.90
2023-01-29T05:41:18.263Z,128.70
2023-01-29T05:42:18.254Z,125.00
2023-01-29T05:43:18.237Z,120.20
2023-01-29T05:44:18.247Z,126.90
2023-01-29T05:45:18.215Z,405.50
2023-01-29T05:46:18.251Z,198.70
2023-01-29T05:47:18.191Z,178.70
2023-01-29T05:48:18.181Z,130.50
2023-01-29T05:49:18.192Z,128.70
2023-01-29T05:50:18.416Z,126.90
2023-01-29T05:51:18.135Z,114.30
2023-01-29T05:52:18.121Z,125.80
2023-01-29T05:53:18.127Z,118.10
2023-01-29T05:54:18.109Z,115.40
2023-01-29T05:55:18.095Z,125.30
2023-01-29T05:56:18.080Z,114.00
2023-01-29T05:57:18.061Z,113.00
2023-01-29T05:58:18.049Z,115.10
2023-01-29T05:59:18.061Z,115.50
2023-01-29T06:00:18.313Z,112.90
2023-01-29T06:01:18.042Z,113.20
2023-01-29T06:02:18.003Z,117.30
2023-01-29T06:03:18.079Z,113.50
2023-01-29T06:04:17.989Z,117.20
2023-01-29T06:05:17.971Z,112.90
2023-01-29T06:06:17.946Z,114.40
2023-01-29T06:07:17.943Z,113.90
2023-01-29T06:08:17.933Z,113.60
2023-01-29T06:09:17.933Z,114.40
2023-01-29T06:10:18.371Z,112.10
2023-01-29T06:11:17.893Z,109.90
2023-01-29T06:12:17.861Z,107.60
2023-01-29T06:13:17.862Z,112.80
2023-01-29T06:14:17.844Z,115.00
2023-01-29T06:15:17.845Z,112.20
2023-01-29T06:16:17.875Z,104.30
2023-01-29T06:17:17.816Z,111.30
2023-01-29T06:18:17.800Z,111.40
2023-01-29T06:19:17.782Z,111.70
2023-01-29T06:20:18.098Z,112.30
2023-01-29T06:21:19.969Z,110.10
2023-01-29T06:22:17.755Z,110.40
2023-01-29T06:23:17.724Z,112.30
2023-01-29T06:24:17.998Z,108.20
2023-01-29T06:25:18.592Z,112.70
2023-01-29T06:26:17.792Z,111.60
2023-01-29T06:27:17.754Z,116.50
2023-01-29T06:28:17.681Z,109.60
2023-01-29T06:29:17.668Z,104.70
2023-01-29T06:30:17.986Z,109.20
2023-01-29T06:31:36.877Z,114.10
2023-01-29T06:32:18.634Z,106.30
2023-01-29T06:33:17.624Z,111.10
2023-01-29T06:34:17.586Z,104.70
2023-01-29T06:35:17.597Z,108.60
2023-01-29T06:36:17.577Z,105.10
2023-01-29T06:37:17.553Z,110.10
2023-01-29T06:38:17.532Z,109.80
2023-01-29T06:39:17.580Z,107.90
2023-01-29T06:40:17.878Z,113.60
2023-01-29T06:41:17.504Z,111.30
2023-01-29T06:42:17.487Z,105.60
2023-01-29T06:43:17.493Z,113.10
2023-01-29T06:44:17.450Z,113.10
2023-01-29T06:45:17.467Z,110.30
2023-01-29T06:46:17.443Z,216.90
2023-01-29T06:47:17.433Z,238.40
2023-01-29T06:48:17.415Z,116.50
2023-01-29T06:49:17.401Z,116.40
2023-01-29T06:50:17.771Z,106.40
2023-01-29T06:51:17.374Z,118.90
2023-01-29T06:52:17.392Z,112.10
2023-01-29T06:53:17.345Z,116.00
2023-01-29T06:54:17.335Z,105.80
2023-01-29T06:55:17.341Z,106.10
2023-01-29T06:56:17.304Z,104.00
2023-01-29T06:57:17.296Z,112.20
2023-01-29T06:58:17.286Z,109.50
2023-01-29T06:59:17.291Z,107.60
2023-01-29T07:00:17.531Z,107.80
2023-01-29T07:01:33.345Z,104.00
2023-01-29T07:02:18.287Z,113.10
2023-01-29T07:03:17.228Z,112.80
2023-01-29T07:04:17.195Z,111.60
2023-01-29T07:05:17.206Z,109.40
2023-01-29T07:06:17.194Z,114.80
2023-01-29T07:07:17.161Z,108.50
2023-01-29T07:08:17.152Z,104.90
2023-01-29T07:09:17.136Z,107.80
2023-01-29T07:10:17.387Z,106.40
2023-01-29T07:11:17.111Z,110.10
2023-01-29T07:12:17.093Z,109.00
2023-01-29T07:13:17.091Z,108.80
2023-01-29T07:14:17.063Z,110.80
2023-01-29T07:15:17.068Z,180.40
2023-01-29T07:16:17.110Z,112.10
2023-01-29T07:17:17.029Z,121.50
2023-01-29T07:18:17.020Z,108.70
2023-01-29T07:19:17.274Z,110.80
2023-01-29T07:20:17.255Z,107.10
2023-01-29T07:21:17.004Z,110.20
2023-01-29T07:22:16.952Z,110.20
2023-01-29T07:23:16.952Z,113.30
2023-01-29T07:24:16.975Z,108.30
2023-01-29T07:25:16.926Z,107.20
2023-01-29T07:26:16.953Z,110.80
2023-01-29T07:27:16.900Z,106.50
2023-01-29T07:28:16.895Z,113.70
2023-01-29T07:29:16.872Z,110.20
2023-01-29T07:30:17.173Z,107.20
2023-01-29T07:31:16.995Z,112.70
2023-01-29T07:32:16.871Z,109.80
2023-01-29T07:33:16.819Z,105.10
2023-01-29T07:34:16.813Z,111.30
2023-01-29T07:35:16.783Z,107.00
2023-01-29T07:36:16.808Z,109.60
2023-01-29T07:37:16.775Z,110.30
2023-01-29T07:38:16.757Z,107.10
2023-01-29T07:39:16.739Z,108.40
2023-01-29T07:40:16.952Z,107.60
2023-01-29T07:41:16.731Z,109.60
2023-01-29T07:42:16.704Z,114.50
2023-01-29T07:43:16.682Z,108.00
2023-01-29T07:44:16.687Z,105.50
2023-01-29T07:45:16.650Z,105.40
2023-01-29T07:46:16.778Z,113.80
2023-01-29T07:47:17.349Z,132.20
2023-01-29T07:48:16.630Z,114.90
2023-01-29T07:49:16.622Z,110.80
2023-01-29T07:50:16.844Z,103.50
2023-01-29T07:51:16.588Z,107.90
2023-01-29T07:52:16.614Z,106.10
2023-01-29T07:53:16.622Z,107.60
2023-01-29T07:54:16.560Z,102.00
2023-01-29T07:55:16.557Z,106.80
2023-01-29T07:56:16.583Z,110.10
2023-01-29T07:57:16.572Z,106.10
2023-01-29T07:58:16.501Z,105.70
2023-01-29T07:59:16.485Z,108.70
2023-01-29T08:00:16.678Z,109.80
2023-01-29T08:01:16.539Z,108.90
2023-01-29T08:02:16.497Z,106.70
2023-01-29T08:03:16.477Z,104.40
2023-01-29T08:04:16.410Z,100.70
2023-01-29T08:05:16.399Z,109.90
2023-01-29T08:06:16.408Z,103.50
2023-01-29T08:07:16.394Z,108.80
2023-01-29T08:08:16.361Z,105.90
2023-01-29T08:09:16.343Z,103.40
2023-01-29T08:10:16.682Z,103.50
2023-01-29T08:11:16.338Z,105.30
2023-01-29T08:12:16.337Z,106.60
2023-01-29T08:13:16.347Z,110.90
2023-01-29T08:14:16.298Z,103.50
2023-01-29T08:15:16.258Z,107.70
2023-01-29T08:16:16.312Z,108.20
2023-01-29T08:17:16.359Z,104.60
2023-01-29T08:18:16.228Z,108.80
2023-01-29T08:19:16.217Z,112.10
2023-01-29T08:20:16.469Z,104.60
2023-01-29T08:21:16.223Z,107.80
2023-01-29T08:22:16.198Z,98.80
2023-01-29T08:23:16.165Z,100.90
2023-01-29T08:24:16.151Z,105.30
2023-01-29T08:25:16.129Z,105.70
2023-01-29T08:26:16.151Z,104.80
2023-01-29T08:27:16.129Z,105.90
2023-01-29T08:28:16.099Z,105.60
2023-01-29T08:29:16.094Z,108.30
2023-01-29T08:30:17.562Z,101.00
2023-01-29T08:31:16.089Z,103.90
2023-01-29T08:32:16.079Z,102.50
2023-01-29T08:33:17.549Z,103.50
2023-01-29T08:34:16.019Z,110.30
2023-01-29T08:35:16.037Z,117.50
2023-01-29T08:36:16.010Z,131.30
2023-01-29T08:37:15.999Z,115.80
2023-01-29T08:38:15.985Z,105.10
2023-01-29T08:39:15.971Z,105.50
2023-01-29T08:40:16.219Z,99.80
2023-01-29T08:41:15.939Z,100.00
2023-01-29T08:42:15.943Z,101.40
2023-01-29T08:43:15.916Z,96.10
2023-01-29T08:44:15.887Z,103.50
2023-01-29T08:45:15.880Z,97.00
2023-01-29T08:46:15.907Z,104.70
2023-01-29T08:47:15.857Z,99.10
2023-01-29T08:48:15.836Z,102.50
2023-01-29T08:49:15.852Z,104.80
2023-01-29T08:50:16.143Z,96.80
2023-01-29T08:51:15.811Z,100.20
2023-01-29T08:52:15.800Z,102.30
2023-01-29T08:53:15.806Z,97.70
2023-01-29T08:54:15.769Z,99.60
2023-01-29T08:55:16.017Z,98.70
2023-01-29T08:56:15.738Z,102.00
2023-01-29T08:57:15.727Z,99.90
2023-01-29T08:58:15.725Z,97.40
2023-01-29T08:59:15.702Z,100.90
2023-01-29T09:00:16.008Z,103.00
2023-01-29T09:01:15.693Z,103.50
2023-01-29T09:02:15.705Z,99.70
2023-01-29T09:03:15.648Z,97.50
2023-01-29T09:04:15.654Z,97.00
2023-01-29T09:05:15.928Z,103.30
2023-01-29T09:06:15.602Z,103.90
2023-01-29T09:07:15.608Z,101.40
2023-01-29T09:08:15.603Z,102.80
2023-01-29T09:09:15.571Z,99.30
2023-01-29T09:10:15.547Z,100.50
2023-01-29T09:11:15.539Z,102.20
2023-01-29T09:12:15.570Z,98.40
2023-01-29T09:13:15.529Z,101.00
2023-01-29T09:14:15.509Z,104.40
2023-01-29T09:15:15.909Z,99.00
2023-01-29T09:16:15.517Z,102.90
2023-01-29T09:17:15.482Z,101.20
2023-01-29T09:18:15.449Z,99.70
2023-01-29T09:19:15.451Z,97.70
2023-01-29T09:20:15.438Z,95.30
2023-01-29T09:21:15.409Z,93.10
2023-01-29T09:22:15.412Z,100.20
2023-01-29T09:23:15.390Z,101.20
2023-01-29T09:24:15.391Z,100.20
2023-01-29T09:25:15.684Z,99.40
2023-01-29T09:26:15.386Z,100.40
2023-01-29T09:27:15.348Z,103.50
2023-01-29T09:28:15.318Z,133.10
2023-01-29T09:29:15.308Z,110.20
2023-01-29T09:30:15.319Z,114.90
2023-01-29T09:31:15.373Z,101.30
2023-01-29T09:32:16.840Z,98.40
2023-01-29T09:33:15.274Z,100.90
2023-01-29T09:34:15.259Z,99.20
2023-01-29T09:35:15.591Z,100.60
2023-01-29T09:36:15.228Z,101.30
2023-01-29T09:37:15.205Z,98.20
2023-01-29T09:38:15.206Z,98.50
2023-01-29T09:39:15.201Z,97.60
2023-01-29T09:40:15.175Z,101.60
2023-01-29T09:41:15.148Z,100.40
2023-01-29T09:42:15.141Z,97.20
2023-01-29T09:43:15.143Z,96.70
2023-01-29T09:44:15.117Z,100.10
2023-01-29T09:45:15.327Z,103.50
2023-01-29T09:46:15.179Z,96.70
2023-01-29T09:47:15.084Z,96.50
2023-01-29T09:48:15.076Z,98.50
2023-01-29T09:49:15.067Z,103.70
2023-01-29T09:50:15.036Z,103.10
2023-01-29T09:51:15.039Z,117.80
2023-01-29T09:52:15.011Z,112.70
2023-01-29T09:53:15.007Z,103.90
2023-01-29T09:54:14.977Z,98.60
2023-01-29T09:55:15.356Z,104.80
2023-01-29T09:56:14.977Z,102.30
2023-01-29T09:57:14.946Z,101.20
2023-01-29T09:58:14.959Z,98.70
2023-01-29T09:59:14.931Z,97.40
2023-01-29T10:00:14.924Z,96.20
2023-01-29T10:01:15.022Z,99.30
2023-01-29T10:02:14.981Z,98.20
2023-01-29T10:03:14.876Z,98.70
2023-01-29T10:04:14.915Z,102.30
2023-01-29T10:05:15.135Z,98.50
2023-01-29T10:06:14.838Z,97.90
2023-01-29T10:07:14.854Z,95.90
2023-01-29T10:08:14.817Z,98.20
2023-01-29T10:09:14.793Z,100.50
2023-01-29T10:10:14.785Z,95.30
2023-01-29T10:11:14.792Z,99.30
2023-01-29T10:12:14.761Z,98.70
2023-01-29T10:13:14.740Z,102.30
2023-01-29T10:14:14.713Z,96.30
2023-01-29T10:15:14.956Z,97.50
2023-01-29T10:16:14.729Z,93.40
2023-01-29T10:17:14.763Z,96.80
2023-01-29T10:18:14.682Z,97.30
2023-01-29T10:19:14.674Z,102.30
2023-01-29T10:20:14.636Z,96.40
2023-01-29T10:21:14.629Z,95.80
2023-01-29T10:22:14.621Z,93.00
2023-01-29T10:23:14.627Z,100.90
2023-01-29T10:24:14.587Z,91.50
2023-01-29T10:25:14.951Z,96.10
2023-01-29T10:26:14.593Z,91.50
2023-01-29T10:27:14.575Z,94.80
2023-01-29T10:28:14.572Z,95.50
2023-01-29T10:29:14.527Z,92.40
2023-01-29T10:30:14.521Z,93.50
2023-01-29T10:31:14.665Z,92.10
2023-01-29T10:32:14.549Z,93.60
2023-01-29T10:33:14.476Z,91.40
2023-01-29T10:34:14.491Z,89.70
2023-01-29T10:35:14.885Z,93.70
2023-01-29T10:36:14.460Z,96.80
2023-01-29T10:37:14.416Z,91.50
2023-01-29T10:38:14.434Z,91.20
2023-01-29T10:39:14.410Z,93.20
2023-01-29T10:40:14.419Z,91.40
2023-01-29T10:41:14.416Z,87.70
2023-01-29T10:42:14.358Z,94.00
2023-01-29T10:43:14.356Z,96.40
2023-01-29T10:44:14.363Z,93.80
2023-01-29T10:45:14.433Z,93.40
2023-01-29T10:46:14.305Z,89.70
2023-01-29T10:47:14.331Z,91.70
2023-01-29T10:48:14.287Z,97.20
2023-01-29T10:49:14.270Z,95.90
2023-01-29T10:50:14.258Z,91.60
2023-01-29T10:51:14.259Z,90.70
2023-01-29T10:52:14.241Z,89.70
2023-01-29T10:53:14.224Z,91.00
2023-01-29T10:54:14.204Z,95.30
2023-01-29T10:55:14.685Z,92.80
2023-01-29T10:56:22.681Z,95.30
2023-01-29T10:57:15.177Z,93.80
2023-01-29T10:58:14.206Z,93.80
2023-01-29T10:59:14.149Z,92.00
2023-01-29T11:00:14.126Z,96.20
2023-01-29T11:01:14.145Z,99.90
2023-01-29T11:02:14.122Z,92.00
2023-01-29T11:04:15.101Z,91.60
2023-01-29T11:05:14.476Z,89.50
2023-01-29T11:06:14.051Z,89.20
2023-01-29T11:07:14.118Z,94.40
2023-01-29T11:08:14.017Z,89.30
2023-01-29T11:09:14.020Z,89.60
2023-01-29T11:10:14.439Z,88.00
2023-01-29T11:11:13.974Z,91.70
2023-01-29T11:12:13.969Z,88.90
2023-01-29T11:13:13.946Z,88.70
2023-01-29T11:14:13.956Z,91.60
2023-01-29T11:15:13.937Z,86.40
2023-01-29T11:16:13.920Z,85.10
2023-01-29T11:17:13.947Z,90.10
2023-01-29T11:18:13.901Z,89.70
2023-01-29T11:19:13.886Z,92.50
2023-01-29T11:20:13.888Z,84.90
2023-01-29T11:21:13.846Z,88.30
2023-01-29T11:22:13.847Z,87.70
2023-01-29T11:23:13.833Z,87.10
2023-01-29T11:24:13.855Z,86.90
2023-01-29T11:25:13.813Z,87.40
2023-01-29T11:26:13.844Z,88.30
2023-01-29T11:27:13.791Z,87.30
2023-01-29T11:28:13.770Z,87.10
2023-01-29T11:29:13.780Z,89.30
2023-01-29T11:30:13.826Z,83.20
2023-01-29T11:31:13.824Z,88.40
2023-01-29T11:32:13.764Z,87.00
2023-01-29T11:33:13.702Z,82.80
2023-01-29T11:34:13.726Z,86.40
2023-01-29T11:35:13.701Z,88.80
2023-01-29T11:36:13.693Z,82.30
2023-01-29T11:37:13.659Z,79.70
2023-01-29T11:38:13.647Z,84.10
2023-01-29T11:39:13.677Z,82.90
2023-01-29T11:40:13.757Z,85.50
2023-01-29T11:41:13.611Z,81.00
2023-01-29T11:42:14.180Z,84.00
2023-01-29T11:43:13.580Z,83.30
2023-01-29T11:44:13.599Z,86.20
2023-01-29T11:45:13.560Z,85.70
2023-01-29T11:46:13.585Z,91.00
2023-01-29T11:47:13.546Z,79.90
2023-01-29T11:48:13.530Z,82.20
2023-01-29T11:49:20.574Z,82.50
2023-01-29T11:50:14.923Z,79.70
2023-01-29T11:51:13.481Z,85.40
2023-01-29T11:52:13.471Z,81.70
2023-01-29T11:53:13.451Z,85.90
2023-01-29T11:54:13.455Z,84.80
2023-01-29T11:55:13.435Z,80.70
2023-01-29T11:56:13.411Z,85.80
2023-01-29T11:57:13.403Z,99.20
2023-01-29T11:58:13.381Z,84.70
2023-01-29T11:59:13.410Z,88.30
2023-01-29T12:00:13.371Z,83.20
2023-01-29T12:01:13.360Z,84.10
2023-01-29T12:02:13.375Z,85.00
2023-01-29T12:03:13.331Z,83.10
2023-01-29T12:04:13.403Z,82.80
2023-01-29T12:05:13.300Z,89.10
2023-01-29T12:06:13.393Z,86.20
2023-01-29T12:07:13.288Z,85.50
2023-01-29T12:08:13.251Z,83.70
2023-01-29T12:09:14.995Z,83.80
2023-01-29T12:10:13.293Z,84.70
2023-01-29T12:11:13.222Z,83.30
2023-01-29T12:12:13.211Z,78.50
2023-01-29T12:13:13.203Z,81.30
2023-01-29T12:14:13.171Z,84.20
2023-01-29T12:15:13.188Z,83.00
2023-01-29T12:16:13.232Z,83.20
2023-01-29T12:17:13.150Z,82.10
2023-01-29T12:18:13.128Z,86.70
2023-01-29T12:19:13.117Z,83.30
2023-01-29T12:20:13.168Z,86.30
2023-01-29T12:21:13.090Z,82.50
2023-01-29T12:22:13.076Z,79.40
2023-01-29T12:23:13.074Z,87.30
2023-01-29T12:24:13.043Z,86.30
2023-01-29T12:25:13.074Z,86.50
2023-01-29T12:26:13.090Z,82.60
2023-01-29T12:27:13.023Z,84.40
2023-01-29T12:28:13.009Z,83.90
2023-01-29T12:29:12.994Z,84.90
2023-01-29T12:30:12.971Z,83.40
2023-01-29T12:31:13.022Z,80.60
2023-01-29T12:32:12.950Z,87.60
2023-01-29T12:33:12.958Z,82.40
2023-01-29T12:34:12.983Z,82.50
2023-01-29T12:35:12.913Z,85.00